createdAt,value
2018-04-02T00:01:11.967Z,99.90
2018-04-02T00:03:38.135Z,99.90
2018-04-02T00:06:04.300Z,99.90
2018-04-02T00:08:30.472Z,99.90
2018-04-02T00:10:57.396Z,99.90
2018-04-02T00:13:23.568Z,99.90
2018-04-02T00:15:50.461Z,99.90
2018-04-02T00:18:16.617Z,99.90
2018-04-02T00:20:42.770Z,99.90
2018-04-02T00:23:09.665Z,99.90
2018-04-02T00:25:35.883Z,99.90
2018-04-02T00:28:02.032Z,99.90
2018-04-02T00:30:28.204Z,99.90
2018-04-02T00:32:54.382Z,99.90
2018-04-02T00:35:20.532Z,99.90
2018-04-02T00:37:46.687Z,99.90
2018-04-02T00:40:12.883Z,99.90
2018-04-02T00:42:39.047Z,99.90
2018-04-02T00:45:05.240Z,99.90
2018-04-02T00:47:32.143Z,99.90
2018-04-02T00:49:58.296Z,99.90
2018-04-02T00:52:25.204Z,99.90
2018-04-02T00:54:51.351Z,99.90
2018-04-02T00:57:17.501Z,99.90
2018-04-02T00:59:43.668Z,99.90
2018-04-02T01:02:09.849Z,99.90
2018-04-02T01:04:35.985Z,99.90
2018-04-02T01:07:02.186Z,99.90
2018-04-02T01:09:28.375Z,99.90
2018-04-02T01:11:55.300Z,99.90
2018-04-02T01:14:21.485Z,99.90
2018-04-02T01:16:48.396Z,99.90
2018-04-02T01:19:14.551Z,99.90
2018-04-02T01:21:40.756Z,99.90
2018-04-02T01:24:06.947Z,99.90
2018-04-02T01:26:33.095Z,99.90
2018-04-02T01:28:59.270Z,99.90
2018-04-02T01:31:26.168Z,99.90
2018-04-02T01:33:52.349Z,99.90
2018-04-02T01:36:20.008Z,99.90
2018-04-02T01:38:46.444Z,99.90
2018-04-02T01:41:12.608Z,99.90
2018-04-02T01:43:39.037Z,99.90
2018-04-02T01:46:05.939Z,99.90
2018-04-02T01:48:32.113Z,99.90
2018-04-02T01:50:59.032Z,99.90
2018-04-02T01:53:25.179Z,99.90
2018-04-02T01:55:51.331Z,99.90
2018-04-02T01:58:17.761Z,99.90
2018-04-02T02:00:43.951Z,99.90
2018-04-02T02:03:10.124Z,99.90
2018-04-02T02:05:36.298Z,99.90
2018-04-02T02:08:03.197Z,99.90
2018-04-02T02:10:29.349Z,99.90
2018-04-02T02:12:55.516Z,99.90
2018-04-02T02:15:22.413Z,99.90
2018-04-02T02:17:51.489Z,99.90
2018-04-02T02:20:17.664Z,99.90
2018-04-02T02:22:43.869Z,99.90
2018-04-02T02:25:10.019Z,99.90
2018-04-02T02:27:36.184Z,99.90
2018-04-02T02:30:03.069Z,99.90
2018-04-02T02:32:29.241Z,99.90
2018-04-02T02:34:56.201Z,99.90
2018-04-02T02:37:22.304Z,99.90
2018-04-02T02:39:48.508Z,99.90
2018-04-02T02:42:14.704Z,99.90
2018-04-02T02:44:40.880Z,99.90
2018-04-02T02:47:07.068Z,99.90
2018-04-02T02:49:33.208Z,99.90
2018-04-02T02:52:00.140Z,99.90
2018-04-02T02:54:26.355Z,99.90
2018-04-02T02:56:52.516Z,99.90
2018-04-02T02:59:18.692Z,99.90
2018-04-02T03:01:44.873Z,99.90
2018-04-02T03:04:11.821Z,99.90
2018-04-02T03:06:38.732Z,99.90
2018-04-02T03:09:04.961Z,99.90
2018-04-02T03:11:31.129Z,99.90
2018-04-02T03:13:57.309Z,99.90
2018-04-02T03:16:23.523Z,99.90
2018-04-02T03:18:49.679Z,99.90
2018-04-02T03:21:22.940Z,99.90
2018-04-02T03:23:49.109Z,99.90
2018-04-02T03:26:15.267Z,99.90
2018-04-02T03:28:41.783Z,99.90
2018-04-02T03:31:08.714Z,99.90
2018-04-02T03:33:35.603Z,99.90
2018-04-02T03:36:01.774Z,99.90
2018-04-02T03:38:27.936Z,99.90
2018-04-02T03:40:54.901Z,99.90
2018-04-02T03:43:21.096Z,99.90
2018-04-02T03:45:47.288Z,99.90
2018-04-02T03:48:13.600Z,99.90
2018-04-02T03:50:40.519Z,99.90
2018-04-02T03:53:07.440Z,99.90
2018-04-02T03:55:33.611Z,99.90
2018-04-02T03:58:00.535Z,99.90
2018-04-02T04:00:26.695Z,99.90
2018-04-02T04:02:52.860Z,99.90
2018-04-02T04:05:19.011Z,99.90
2018-04-02T04:07:45.167Z,99.90
2018-04-02T04:10:11.340Z,99.90
2018-04-02T04:12:37.504Z,99.90
2018-04-02T04:15:03.712Z,99.90
2018-04-02T04:17:30.672Z,99.90
2018-04-02T04:19:56.818Z,99.90
2018-04-02T04:22:22.980Z,99.90
2018-04-02T04:24:49.155Z,99.90
2018-04-02T04:27:16.066Z,99.90
2018-04-02T04:29:42.234Z,99.90
2018-04-02T04:32:08.415Z,99.90
2018-04-02T04:34:34.597Z,99.90
2018-04-02T04:37:01.508Z,99.90
2018-04-02T04:39:27.702Z,99.90
2018-04-02T04:41:53.916Z,99.90
2018-04-02T04:44:20.835Z,99.90
2018-04-02T04:46:47.455Z,99.90
2018-04-02T04:49:13.691Z,99.90
2018-04-02T04:51:39.856Z,99.90
2018-04-02T04:54:06.128Z,99.90
2018-04-02T04:56:33.011Z,99.90
2018-04-02T04:58:59.160Z,99.90
2018-04-02T05:01:25.347Z,99.90
2018-04-02T05:03:52.252Z,99.90
2018-04-02T05:06:18.671Z,99.90
2018-04-02T05:08:44.821Z,99.90
2018-04-02T05:11:11.000Z,99.90
2018-04-02T05:13:37.924Z,99.90
2018-04-02T05:16:04.064Z,99.90
2018-04-02T05:18:30.988Z,99.90
2018-04-02T05:20:57.196Z,99.90
2018-04-02T05:23:23.567Z,99.90
2018-04-02T05:25:49.746Z,99.90
2018-04-02T05:28:15.923Z,99.90
2018-04-02T05:30:42.098Z,99.90
2018-04-02T05:33:09.017Z,99.90
2018-04-02T05:35:35.248Z,99.90
2018-04-02T05:38:01.413Z,99.90
2018-04-02T05:40:28.320Z,99.90
2018-04-02T05:42:55.257Z,99.90
2018-04-02T05:45:21.787Z,99.90
2018-04-02T05:47:48.278Z,99.90
2018-04-02T05:50:15.934Z,99.90
2018-04-02T05:52:42.117Z,99.90
2018-04-02T05:55:08.288Z,99.90
2018-04-02T05:57:34.431Z,99.90
2018-04-02T06:00:00.656Z,99.90
2018-04-02T06:02:27.584Z,99.90
2018-04-02T06:04:53.862Z,99.90
2018-04-02T06:07:20.788Z,99.90
2018-04-02T06:09:47.007Z,99.90
2018-04-02T06:12:13.226Z,99.90
2018-04-02T06:14:39.428Z,99.90
2018-04-02T06:17:05.634Z,99.90
2018-04-02T06:19:31.824Z,99.90
2018-04-02T06:21:57.973Z,99.90
2018-04-02T06:24:24.136Z,99.90
2018-04-02T06:26:50.343Z,99.90
2018-04-02T06:29:16.495Z,99.90
2018-04-02T06:31:42.667Z,99.90
2018-04-02T06:34:09.631Z,99.90
2018-04-02T06:36:35.784Z,99.90
2018-04-02T06:39:01.944Z,99.90
2018-04-02T06:41:28.111Z,99.90
2018-04-02T06:43:54.304Z,99.90
2018-04-02T06:46:20.478Z,99.90
2018-04-02T06:48:46.698Z,99.90
2018-04-02T06:51:12.881Z,99.90
2018-04-02T06:53:39.052Z,99.90
2018-04-02T06:56:05.571Z,99.90
2018-04-02T06:58:31.739Z,99.90
2018-04-02T07:00:57.900Z,99.80
2018-04-02T07:03:24.101Z,99.60
2018-04-02T07:05:50.307Z,99.50
2018-04-02T07:08:16.455Z,99.50
2018-04-02T07:10:42.639Z,99.40
2018-04-02T07:13:08.796Z,99.30
2018-04-02T07:15:35.146Z,99.00
2018-04-02T07:18:01.320Z,98.80
2018-04-02T07:20:28.231Z,98.00
2018-04-02T07:22:54.408Z,98.00
2018-04-02T07:25:20.575Z,97.70
2018-04-02T07:27:46.784Z,97.40
2018-04-02T07:30:12.956Z,97.10
2018-04-02T07:32:39.144Z,96.80
2018-04-02T07:35:06.061Z,96.20
2018-04-02T07:37:32.216Z,96.20
2018-04-02T07:39:59.108Z,95.00
2018-04-02T07:42:25.288Z,94.70
2018-04-02T07:44:51.471Z,94.80
2018-04-02T07:47:17.663Z,94.80
2018-04-02T07:49:44.000Z,94.50
2018-04-02T07:52:10.176Z,94.20
2018-04-02T07:54:36.354Z,93.00
2018-04-02T07:57:02.531Z,92.50
2018-04-02T07:59:28.703Z,91.90
2018-04-02T08:01:54.864Z,90.70
2018-04-02T08:04:21.018Z,90.90
2018-04-02T08:06:47.990Z,90.00
2018-04-02T08:09:14.186Z,90.00
2018-04-02T08:11:40.344Z,88.00
2018-04-02T08:14:07.244Z,86.90
2018-04-02T08:16:33.394Z,86.90
2018-04-02T08:18:59.563Z,82.10
2018-04-02T08:21:26.643Z,80.30
2018-04-02T08:23:52.853Z,80.30
2018-04-02T08:26:19.024Z,78.70
2018-04-02T08:28:45.213Z,79.00
2018-04-02T08:31:11.413Z,79.00
2018-04-02T08:33:37.625Z,75.80
2018-04-02T08:36:03.825Z,74.30
2018-04-02T08:38:29.989Z,76.10
2018-04-02T08:40:56.137Z,73.10
2018-04-02T08:43:23.097Z,70.50
2018-04-02T08:45:50.063Z,71.10
2018-04-02T08:48:17.563Z,70.10
2018-04-02T08:50:44.144Z,70.10
2018-04-02T08:53:17.439Z,68.70
2018-04-02T08:55:44.351Z,69.50
2018-04-02T08:58:10.636Z,69.30
2018-04-02T09:00:36.858Z,74.80
2018-04-02T09:03:03.039Z,70.80
2018-04-02T09:05:29.203Z,72.60
2018-04-02T09:07:55.454Z,74.90
2018-04-02T09:10:21.720Z,71.70
2018-04-02T09:12:48.717Z,66.80
2018-04-02T09:15:22.121Z,66.20
2018-04-02T09:17:48.289Z,66.20
2018-04-02T09:20:15.220Z,66.10
2018-04-02T09:22:41.388Z,66.10
2018-04-02T09:25:08.454Z,69.50
2018-04-02T09:27:42.459Z,65.10
2018-04-02T09:30:08.735Z,65.10
2018-04-02T09:32:34.936Z,65.60
2018-04-02T09:35:01.864Z,61.10
2018-04-02T09:37:28.779Z,62.20
2018-04-02T09:39:55.715Z,63.20
2018-04-02T09:42:22.035Z,63.00
2018-04-02T09:44:48.963Z,62.10
2018-04-02T09:47:15.859Z,64.40
2018-04-02T09:49:42.803Z,63.10
2018-04-02T09:52:09.248Z,62.90
2018-04-02T09:54:35.410Z,61.20
2018-04-02T09:57:01.582Z,60.80
2018-04-02T09:59:27.751Z,59.00
2018-04-02T10:01:55.236Z,58.10
2018-04-02T10:04:21.416Z,57.70
2018-04-02T10:06:47.773Z,58.50
2018-04-02T10:09:14.122Z,57.70
2018-04-02T10:11:40.301Z,58.00
2018-04-02T10:14:07.228Z,54.70
2018-04-02T10:16:33.434Z,54.70
2018-04-02T10:18:59.640Z,54.90
2018-04-02T10:21:26.531Z,53.20
2018-04-02T10:23:52.792Z,53.10
2018-04-02T10:26:18.964Z,51.80
2018-04-02T10:28:45.861Z,51.40
2018-04-02T10:31:12.043Z,51.40
2018-04-02T10:33:38.919Z,49.60
2018-04-02T10:36:05.092Z,49.70
2018-04-02T10:38:32.061Z,48.90
2018-04-02T10:40:58.216Z,49.40
2018-04-02T10:43:24.375Z,47.00
2018-04-02T10:45:50.569Z,46.10
2018-04-02T10:48:16.764Z,48.30
2018-04-02T10:50:42.952Z,48.80
2018-04-02T10:53:09.521Z,47.50
2018-04-02T10:55:35.741Z,45.40
2018-04-02T10:58:01.927Z,45.70
2018-04-02T11:00:28.859Z,46.60
2018-04-02T11:02:55.048Z,46.50
2018-04-02T11:05:21.215Z,46.10
2018-04-02T11:07:47.368Z,45.60
2018-04-02T11:10:13.852Z,47.20
2018-04-02T11:12:47.090Z,46.20
2018-04-02T11:15:13.500Z,47.30
2018-04-02T11:17:39.664Z,42.70
2018-04-02T11:20:05.828Z,41.70
2018-04-02T11:22:32.327Z,43.60
2018-04-02T11:24:58.516Z,42.50
2018-04-02T11:27:25.432Z,44.30
2018-04-02T11:29:52.387Z,43.80
2018-04-02T11:32:19.332Z,42.10
2018-04-02T11:34:45.514Z,42.00
2018-04-02T11:37:11.675Z,42.40
2018-04-02T11:39:39.325Z,41.50
2018-04-02T11:42:05.674Z,41.50
2018-04-02T11:44:31.820Z,40.80
2018-04-02T11:47:05.228Z,42.20
2018-04-02T11:49:32.900Z,43.00
2018-04-02T11:51:59.086Z,43.00
2018-04-02T11:54:25.592Z,41.60
2018-04-02T11:56:52.475Z,42.30
2018-04-02T11:59:19.359Z,42.90
2018-04-02T12:01:46.348Z,41.60
2018-04-02T12:04:13.261Z,43.10
2018-04-02T12:06:39.393Z,43.10
2018-04-02T12:09:05.918Z,41.90
2018-04-02T12:11:32.071Z,41.40
2018-04-02T12:13:58.248Z,41.60
2018-04-02T12:16:24.446Z,42.20
2018-04-02T12:18:50.584Z,42.20
2018-04-02T12:21:17.523Z,43.90
2018-04-02T12:23:44.443Z,44.00
2018-04-02T12:26:10.665Z,43.90
2018-04-02T12:28:36.840Z,43.30
2018-04-02T12:31:03.048Z,44.50
2018-04-02T12:33:29.885Z,45.80
2018-04-02T12:35:56.068Z,44.30
2018-04-02T12:38:23.021Z,46.20
2018-04-02T12:40:49.252Z,46.20
2018-04-02T12:43:16.216Z,44.70
2018-04-02T12:45:42.718Z,44.60
2018-04-02T12:48:08.903Z,42.90
2018-04-02T12:50:35.100Z,43.20
2018-04-02T12:53:01.273Z,43.80
2018-04-02T12:55:27.768Z,43.20
2018-04-02T12:57:53.975Z,44.40
2018-04-02T13:00:20.158Z,44.30
2018-04-02T13:02:47.118Z,45.80
2018-04-02T13:05:14.024Z,46.00
2018-04-02T13:07:40.202Z,46.00
2018-04-02T13:10:07.115Z,45.50
2018-04-02T13:12:33.325Z,45.40
2018-04-02T13:14:59.566Z,47.00
2018-04-02T13:17:25.775Z,48.10
2018-04-02T13:19:52.696Z,47.70
2018-04-02T13:22:19.604Z,48.40
2018-04-02T13:24:45.829Z,48.40
2018-04-02T13:27:12.697Z,47.70
2018-04-02T13:29:38.916Z,47.60
2018-04-02T13:32:05.172Z,49.10
2018-04-02T13:34:31.376Z,49.60
2018-04-02T13:36:57.545Z,48.90
2018-04-02T13:39:23.987Z,49.30
2018-04-02T13:41:50.139Z,50.30
2018-04-02T13:44:16.308Z,49.00
2018-04-02T13:46:42.499Z,48.30
2018-04-02T13:49:08.667Z,50.00
2018-04-02T13:51:34.844Z,50.20
2018-04-02T13:54:01.035Z,49.80
2018-04-02T13:56:27.516Z,50.70
2018-04-02T13:58:53.675Z,48.90
2018-04-02T14:01:19.824Z,49.00
2018-04-02T14:03:45.997Z,48.80
2018-04-02T14:06:12.201Z,48.40
2018-04-02T14:08:39.113Z,49.00
2018-04-02T14:11:06.099Z,48.50
2018-04-02T14:13:33.040Z,49.70
2018-04-02T14:15:59.972Z,48.80
2018-04-02T14:18:26.140Z,48.70
2018-04-02T14:20:52.335Z,49.90
2018-04-02T14:23:18.486Z,49.30
2018-04-02T14:25:44.649Z,49.90
2018-04-02T14:28:10.914Z,49.50
2018-04-02T14:30:37.133Z,50.70
2018-04-02T14:33:03.292Z,50.70
2018-04-02T14:35:29.471Z,51.20
2018-04-02T14:37:55.653Z,50.50
2018-04-02T14:40:22.192Z,51.10
2018-04-02T14:42:48.385Z,51.30
2018-04-02T14:45:14.592Z,50.60
2018-04-02T14:47:41.503Z,50.50
2018-04-02T14:50:07.733Z,50.50
2018-04-02T14:52:34.004Z,51.30
2018-04-02T14:55:00.951Z,52.30
2018-04-02T14:57:27.404Z,52.20
2018-04-02T14:59:54.411Z,51.40
2018-04-02T15:02:20.572Z,51.30
2018-04-02T15:04:46.780Z,52.80
2018-04-02T15:07:12.956Z,52.00
2018-04-02T15:09:39.092Z,52.80
2018-04-02T15:12:06.008Z,53.70
2018-04-02T15:14:32.180Z,53.70
2018-04-02T15:16:58.376Z,54.20
2018-04-02T15:19:24.536Z,52.70
2018-04-02T15:21:51.448Z,54.10
2018-04-02T15:24:17.651Z,54.00
2018-04-02T15:26:43.844Z,53.90
2018-04-02T15:29:10.818Z,54.50
2018-04-02T15:31:37.731Z,55.90
2018-04-02T15:34:03.964Z,55.90
2018-04-02T15:36:30.177Z,55.70
2018-04-02T15:38:56.372Z,54.90
2018-04-02T15:41:22.634Z,55.00
2018-04-02T15:43:48.804Z,54.50
2018-04-02T15:46:14.974Z,53.90
2018-04-02T15:48:42.064Z,54.30
2018-04-02T15:51:08.276Z,54.30
2018-04-02T15:53:34.501Z,54.20
2018-04-02T15:56:02.778Z,54.00
2018-04-02T15:58:29.276Z,54.10
2018-04-02T16:00:55.447Z,53.30
2018-04-02T16:03:21.687Z,54.60
2018-04-02T16:05:48.616Z,55.20
2018-04-02T16:08:14.787Z,55.20
2018-04-02T16:10:40.969Z,55.70
2018-04-02T16:13:07.164Z,55.70
2018-04-02T16:15:33.320Z,55.40
2018-04-02T16:17:59.823Z,55.30
2018-04-02T16:20:26.017Z,56.00
2018-04-02T16:22:52.184Z,57.30
2018-04-02T16:25:18.405Z,57.20
2018-04-02T16:27:45.285Z,57.60
2018-04-02T16:30:12.253Z,57.50
2018-04-02T16:32:38.516Z,57.50
2018-04-02T16:35:04.669Z,56.50
2018-04-02T16:37:31.584Z,56.70
2018-04-02T16:39:57.771Z,56.70
2018-04-02T16:42:23.966Z,55.10
2018-04-02T16:44:50.132Z,54.30
2018-04-02T16:47:16.349Z,53.70
2018-04-02T16:49:42.788Z,54.00
2018-04-02T16:52:10.466Z,54.60
2018-04-02T16:54:37.380Z,55.40
2018-04-02T16:57:03.565Z,55.40
2018-04-02T16:59:30.248Z,55.70
2018-04-02T17:01:56.427Z,55.40
2018-04-02T17:04:22.608Z,55.80
2018-04-02T17:06:48.817Z,56.60
2018-04-02T17:09:14.977Z,56.60
2018-04-02T17:11:41.226Z,56.60
2018-04-02T17:14:07.367Z,57.70
2018-04-02T17:16:33.618Z,58.40
2018-04-02T17:18:59.795Z,58.50
2018-04-02T17:21:25.969Z,59.20
2018-04-02T17:23:52.130Z,59.60
2018-04-02T17:26:19.044Z,60.10
2018-04-02T17:28:45.256Z,60.00
2018-04-02T17:31:11.440Z,61.30
2018-04-02T17:33:38.397Z,60.60
2018-04-02T17:36:05.327Z,60.80
2018-04-02T17:38:32.289Z,60.80
2018-04-02T17:40:59.194Z,61.40
2018-04-02T17:43:25.364Z,60.90
2018-04-02T17:45:51.533Z,60.70
2018-04-02T17:48:17.699Z,61.90
2018-04-02T17:50:46.214Z,62.50
2018-04-02T17:53:13.093Z,63.30
2018-04-02T17:55:40.283Z,64.10
2018-04-02T17:58:06.481Z,64.10
2018-04-02T18:00:32.685Z,64.90
2018-04-02T18:02:58.852Z,65.50
2018-04-02T18:05:25.856Z,65.80
2018-04-02T18:07:52.038Z,65.70
2018-04-02T18:10:18.959Z,66.40
2018-04-02T18:12:45.904Z,68.60
2018-04-02T18:15:12.096Z,67.90
2018-04-02T18:17:38.265Z,67.70
2018-04-02T18:20:05.188Z,68.90
2018-04-02T18:22:31.336Z,68.90
2018-04-02T18:24:57.528Z,71.00
2018-04-02T18:27:23.687Z,71.60
2018-04-02T18:29:49.883Z,73.00
2018-04-02T18:32:16.088Z,74.40
2018-04-02T18:34:42.263Z,75.10
2018-04-02T18:37:08.468Z,77.00
2018-04-02T18:39:35.397Z,79.90
2018-04-02T18:42:01.563Z,79.80
2018-04-02T18:44:27.755Z,79.70
2018-04-02T18:46:53.951Z,82.10
2018-04-02T18:49:20.102Z,82.00
2018-04-02T18:51:46.304Z,82.30
2018-04-02T18:54:13.195Z,84.40
2018-04-02T18:56:39.355Z,84.40
2018-04-02T18:59:05.540Z,85.30
2018-04-02T19:01:32.009Z,85.00
2018-04-02T19:03:58.152Z,86.40
2018-04-02T19:06:24.335Z,85.50
2018-04-02T19:08:50.519Z,85.20
2018-04-02T19:11:16.750Z,86.20
2018-04-02T19:13:42.897Z,87.40
2018-04-02T19:16:09.059Z,87.80
2018-04-02T19:18:35.601Z,88.80
2018-04-02T19:21:02.514Z,89.40
2018-04-02T19:23:28.697Z,89.40
2018-04-02T19:25:55.151Z,89.70
2018-04-02T19:28:21.364Z,89.50
2018-04-02T19:30:47.519Z,90.40
2018-04-02T19:33:13.696Z,90.90
2018-04-02T19:35:39.888Z,91.10
2018-04-02T19:38:06.756Z,91.80
2018-04-02T19:40:32.948Z,91.80
2018-04-02T19:42:59.126Z,92.00
2018-04-02T19:45:25.287Z,92.20
2018-04-02T19:47:52.192Z,92.40
2018-04-02T19:50:18.372Z,92.30
2018-04-02T19:52:45.331Z,91.90
2018-04-02T19:55:11.521Z,91.90
2018-04-02T19:57:37.691Z,92.30
2018-04-02T20:00:03.932Z,92.20
2018-04-02T20:02:30.823Z,92.40
2018-04-02T20:04:56.990Z,92.30
2018-04-02T20:07:23.496Z,92.60
2018-04-02T20:09:49.663Z,92.60
2018-04-02T20:12:15.859Z,92.60
2018-04-02T20:14:42.021Z,92.80
2018-04-02T20:17:09.681Z,92.70
2018-04-02T20:19:35.896Z,92.70
2018-04-02T20:22:02.072Z,92.40
2018-04-02T20:24:28.227Z,92.60
2018-04-02T20:26:55.153Z,92.80
2018-04-02T20:29:22.032Z,92.80
2018-04-02T20:31:48.280Z,92.70
2018-04-02T20:34:14.475Z,92.50
2018-04-02T20:36:41.384Z,92.50
2018-04-02T20:39:07.599Z,92.40
2018-04-02T20:41:33.760Z,92.40
2018-04-02T20:43:59.913Z,92.20
2018-04-02T20:46:26.065Z,92.00
2018-04-02T20:48:52.272Z,92.10
2018-04-02T20:51:18.454Z,92.00
2018-04-02T20:53:45.532Z,92.00
2018-04-02T20:56:11.700Z,92.00
2018-04-02T20:58:37.847Z,91.90
2018-04-02T21:01:04.023Z,92.00
2018-04-02T21:03:30.596Z,91.70
2018-04-02T21:05:56.763Z,91.80
2018-04-02T21:08:25.788Z,91.70
2018-04-02T21:10:52.775Z,91.70
2018-04-02T21:13:18.973Z,91.50
2018-04-02T21:15:45.172Z,91.50
2018-04-02T21:18:12.075Z,91.30
2018-04-02T21:20:38.257Z,91.30
2018-04-02T21:23:04.648Z,91.40
2018-04-02T21:25:30.799Z,91.50
2018-04-02T21:27:56.994Z,91.30
2018-04-02T21:30:23.131Z,91.60
2018-04-02T21:32:49.476Z,91.90
2018-04-02T21:35:15.677Z,92.10
2018-04-02T21:37:42.586Z,92.90
2018-04-02T21:40:08.795Z,92.80
2018-04-02T21:42:34.952Z,93.00
2018-04-02T21:45:01.111Z,93.20
2018-04-02T21:47:28.036Z,94.00
2018-04-02T21:49:54.236Z,93.90
2018-04-02T21:52:20.375Z,94.10
2018-04-02T21:54:46.792Z,94.10
2018-04-02T21:57:13.698Z,94.20
2018-04-02T21:59:39.872Z,94.20
2018-04-02T22:02:06.768Z,94.10
2018-04-02T22:04:33.543Z,94.10
2018-04-02T22:07:08.476Z,94.70
2018-04-02T22:09:34.641Z,94.40
2018-04-02T22:12:00.860Z,94.30
2018-04-02T22:14:27.815Z,94.40
2018-04-02T22:16:54.715Z,94.20
2018-04-02T22:19:20.883Z,94.20
2018-04-02T22:21:47.086Z,94.50
2018-04-02T22:24:14.010Z,94.50
2018-04-02T22:26:40.232Z,94.60
2018-04-02T22:29:06.396Z,94.90
2018-04-02T22:31:32.573Z,95.10
2018-04-02T22:33:59.474Z,95.40
2018-04-02T22:36:25.628Z,95.40
2018-04-02T22:38:51.812Z,95.90
2018-04-02T22:41:18.276Z,95.80
2018-04-02T22:43:44.445Z,95.70
2018-04-02T22:46:10.604Z,95.90
2018-04-02T22:48:37.696Z,95.80
2018-04-02T22:51:03.854Z,95.80
2018-04-02T22:53:30.028Z,95.90
2018-04-02T22:55:57.111Z,95.90
2018-04-02T22:58:23.268Z,95.90
2018-04-02T23:00:49.440Z,95.80
2018-04-02T23:03:16.645Z,95.60
2018-04-02T23:05:43.090Z,95.50
2018-04-02T23:08:09.256Z,95.50
2018-04-02T23:10:35.520Z,95.50
2018-04-02T23:13:02.421Z,95.50
2018-04-02T23:15:28.600Z,95.50
2018-04-02T23:17:55.520Z,95.40
2018-04-02T23:20:22.432Z,95.60
2018-04-02T23:22:52.613Z,95.60
2018-04-02T23:25:19.531Z,95.80
2018-04-02T23:27:45.671Z,95.80
2018-04-02T23:30:12.769Z,96.00
2018-04-02T23:32:39.636Z,96.20
2018-04-02T23:35:05.829Z,96.20
2018-04-02T23:37:32.832Z,96.70
2018-04-02T23:39:59.008Z,96.50
2018-04-02T23:42:25.208Z,96.60
2018-04-02T23:44:51.368Z,96.80
2018-04-02T23:47:17.582Z,97.00
2018-04-02T23:49:43.740Z,97.00
2018-04-02T23:52:10.637Z,97.20
2018-04-02T23:54:36.829Z,97.20
2018-04-02T23:57:03.828Z,97.90
2018-04-02T23:59:29.995Z,97.80
